createdAt,value
2022-11-25T05:11:27.510Z,100777.72
2022-11-25T05:14:30.760Z,100777.72
2022-11-25T05:17:32.875Z,100758.66
2022-11-25T05:20:35.398Z,100762.56
2022-11-25T05:23:38.124Z,100773.66
2022-11-25T05:26:40.484Z,100770.88
2022-11-25T05:29:42.680Z,100775.81
2022-11-25T05:32:45.445Z,100779.84
2022-11-25T05:36:00.335Z,100779.97
2022-11-25T05:39:04.095Z,100793.19
2022-11-25T05:42:07.459Z,100791.59
2022-11-25T05:45:11.188Z,100794.28
2022-11-25T05:48:14.402Z,100795.28
2022-11-25T05:51:17.324Z,100805.19
2022-11-25T05:54:19.456Z,100808.22
2022-11-25T05:57:21.894Z,100807.78
2022-11-25T06:00:26.716Z,100812.63
2022-11-25T06:03:30.146Z,100816.31
2022-11-25T06:06:32.802Z,100816.47
2022-11-25T06:09:35.557Z,100830.16
2022-11-25T06:12:37.916Z,100829.34
2022-11-25T06:15:42.433Z,100836.97
2022-11-25T06:18:44.999Z,100838.81
2022-11-25T06:21:47.978Z,100843.91
2022-11-25T06:24:57.618Z,100850.59
2022-11-25T06:28:12.716Z,100848.50
2022-11-25T06:31:20.398Z,100847.91
2022-11-25T06:34:24.263Z,100854.84
2022-11-25T06:37:26.327Z,100851.72
2022-11-25T06:40:28.674Z,100853.25
2022-11-25T06:43:31.609Z,100857.63
2022-11-25T06:46:34.543Z,100861.09
2022-11-25T06:49:36.659Z,100862.81
2022-11-25T06:52:38.940Z,100871.13
2022-11-25T06:55:40.961Z,100878.91
2022-11-25T06:58:44.722Z,100889.41
2022-11-25T07:01:48.484Z,100887.38
2022-11-25T07:04:51.017Z,100887.38
2022-11-25T07:07:53.169Z,100883.09
2022-11-25T07:10:55.710Z,100888.69
2022-11-25T07:14:04.663Z,100890.87
2022-11-25T07:17:11.691Z,100897.81
2022-11-25T07:20:14.396Z,100905.66
2022-11-25T07:23:16.836Z,100911.19
2022-11-25T07:26:24.580Z,100908.41
2022-11-25T07:29:54.265Z,100907.41
2022-11-25T07:32:50.099Z,100911.19
2022-11-25T07:35:52.444Z,100913.59
2022-11-25T07:38:54.880Z,100910.19
2022-11-25T07:41:57.279Z,100907.31
2022-11-25T07:44:59.348Z,100905.69
2022-11-25T07:48:02.927Z,100907.94
2022-11-25T07:51:08.944Z,100906.69
2022-11-25T07:54:13.941Z,100900.22
2022-11-25T07:57:16.029Z,100903.50
2022-11-25T08:00:18.859Z,100901.13
2022-11-25T08:03:21.213Z,100905.38
2022-11-25T08:06:26.206Z,100910.16
2022-11-25T08:09:28.552Z,100915.97
2022-11-25T08:12:32.520Z,100913.56
2022-11-25T08:15:34.918Z,100915.72
2022-11-25T08:18:39.307Z,100924.69
2022-11-25T08:21:42.082Z,100920.53
2022-11-25T08:24:44.193Z,100919.56
2022-11-25T08:27:47.798Z,100924.84
2022-11-25T08:30:50.196Z,100931.56
2022-11-25T08:33:53.699Z,100938.16
2022-11-25T08:36:55.824Z,100937.66
2022-11-25T08:39:58.558Z,100938.03
2022-11-25T08:43:00.941Z,100932.28
2022-11-25T08:46:10.849Z,100935.91
2022-11-25T08:49:13.443Z,100939.56
2022-11-25T08:52:15.784Z,100935.41
2022-11-25T08:55:17.908Z,100937.31
2022-11-25T08:58:20.188Z,100937.41
2022-11-25T09:01:23.847Z,100934.88
2022-11-25T09:04:26.276Z,100936.72
2022-11-25T09:07:30.894Z,100942.34
2022-11-25T09:10:34.634Z,100944.25
2022-11-25T09:13:37.852Z,100938.16
2022-11-25T09:16:40.306Z,100932.81
2022-11-25T09:19:42.455Z,100933.91
2022-11-25T09:22:44.827Z,100935.06
2022-11-25T09:25:54.343Z,100931.69
2022-11-25T09:28:57.511Z,100934.06
2022-11-25T09:31:59.699Z,100937.50
2022-11-25T09:35:03.355Z,100934.00
2022-11-25T09:38:05.594Z,100937.69
2022-11-25T09:41:45.555Z,100932.63
2022-11-25T09:45:15.222Z,100928.09
2022-11-25T09:48:37.812Z,100921.16
2022-11-25T09:51:56.560Z,100921.72
2022-11-25T09:55:19.625Z,100919.34
2022-11-25T09:58:28.389Z,100916.66
2022-11-25T10:01:31.790Z,100921.69
2022-11-25T10:04:40.599Z,100921.94
2022-11-25T10:07:47.413Z,100911.69
2022-11-25T10:11:06.505Z,100915.41
2022-11-25T10:14:34.336Z,100917.53
2022-11-25T10:17:51.641Z,100915.25
2022-11-25T10:20:54.177Z,100913.84
2022-11-25T10:23:56.892Z,100914.66
2022-11-25T10:27:07.413Z,100921.03
2022-11-25T10:30:22.570Z,100928.25
2022-11-25T10:33:28.427Z,100925.63
2022-11-25T10:36:39.212Z,100917.28
2022-11-25T10:39:41.261Z,100915.19
2022-11-25T10:42:43.889Z,100913.81
2022-11-25T10:45:58.436Z,100909.66
2022-11-25T10:49:38.440Z,100919.25
2022-11-25T10:52:52.053Z,100916.31
2022-11-25T10:56:03.587Z,100913.62
2022-11-25T10:59:23.985Z,100916.06
2022-11-25T11:02:48.301Z,100916.09
2022-11-25T11:05:52.582Z,100915.03
2022-11-25T11:08:54.924Z,100921.44
2022-11-25T11:11:57.041Z,100927.88
2022-11-25T11:15:41.096Z,100925.19
2022-11-25T11:18:43.444Z,100926.81
2022-11-25T11:21:46.497Z,100928.97
2022-11-25T11:25:05.924Z,100920.41
2022-11-25T11:28:32.822Z,100926.03
2022-11-25T11:31:41.836Z,100916.44
2022-11-25T11:34:44.080Z,100917.88
2022-11-25T11:37:54.630Z,100921.03
2022-11-25T11:41:20.222Z,100915.19
2022-11-25T11:44:46.322Z,100915.72
2022-11-25T11:48:15.919Z,100907.94
2022-11-25T11:51:56.816Z,100913.31
2022-11-25T11:55:14.740Z,100907.94
2022-11-25T11:58:58.286Z,100912.25
2022-11-25T12:02:22.215Z,100910.88
2022-11-25T12:05:36.068Z,100901.50
2022-11-25T12:08:46.302Z,100901.53
2022-11-25T12:11:54.416Z,100906.09
2022-11-25T12:15:04.403Z,100908.75
2022-11-25T12:18:43.829Z,100908.19
2022-11-25T12:21:45.887Z,100911.19
2022-11-25T12:25:06.175Z,100909.81
2022-11-25T12:28:23.991Z,100899.91
2022-11-25T12:31:30.438Z,100902.06
2022-11-25T12:34:46.395Z,100912.50
2022-11-25T12:37:48.753Z,100904.75
2022-11-25T12:41:03.213Z,100903.94
2022-11-25T12:44:14.400Z,100908.78
2022-11-25T12:47:16.436Z,100900.19
2022-11-25T12:50:31.892Z,100903.94
2022-11-25T12:53:51.704Z,100894.25
2022-11-25T12:57:31.908Z,100895.63
2022-11-25T13:00:43.085Z,100901.00
2022-11-25T13:04:15.047Z,100900.19
2022-11-25T13:07:59.264Z,100901.78
2022-11-25T13:11:43.606Z,100907.97
2022-11-25T13:15:17.378Z,100899.91
2022-11-25T13:18:23.973Z,100897.50
2022-11-25T13:21:27.460Z,100900.16
2022-11-25T13:24:49.828Z,100900.97
2022-11-25T13:27:54.972Z,100899.38
2022-11-25T13:31:16.149Z,100891.59
2022-11-25T13:34:21.075Z,100895.88
2022-11-25T13:37:41.465Z,100901.25
2022-11-25T13:40:56.697Z,100912.50
2022-11-25T13:44:14.090Z,100915.72
2022-11-25T13:47:32.054Z,100916.28
2022-11-25T13:50:55.486Z,100920.28
2022-11-25T13:54:01.087Z,100924.59
2022-11-25T13:57:43.889Z,100927.28
2022-11-25T14:00:58.176Z,100929.16
2022-11-25T14:04:05.513Z,100935.31
2022-11-25T14:07:21.716Z,100927.00
2022-11-25T14:10:51.813Z,100938.81
2022-11-25T14:13:59.768Z,100939.88
2022-11-25T14:17:39.641Z,100944.19
2022-11-25T14:20:47.700Z,100938.53
2022-11-25T14:24:17.363Z,100954.38
2022-11-25T14:27:26.836Z,100953.81
2022-11-25T14:30:31.413Z,100952.22
2022-11-25T14:33:38.307Z,100950.34
2022-11-25T14:36:49.552Z,100953.00
2022-11-25T14:40:09.736Z,100951.16
2022-11-25T14:43:19.924Z,100957.56
2022-11-25T14:46:25.364Z,100954.88
2022-11-25T14:49:51.606Z,100956.47
2022-11-25T14:52:57.756Z,100959.44
2022-11-25T14:56:01.102Z,100953.00
2022-11-25T14:59:03.701Z,100965.06
2022-11-25T15:02:06.021Z,100969.34
2022-11-25T15:05:10.132Z,100958.87
2022-11-25T15:08:15.941Z,100954.34
2022-11-25T15:11:21.003Z,100966.91
2022-11-25T15:14:26.551Z,100962.91
2022-11-25T15:17:33.255Z,100963.41
2022-11-25T15:20:35.760Z,100970.91
2022-11-25T15:23:38.160Z,100963.34
2022-11-25T15:26:40.498Z,100968.72
2022-11-25T15:29:44.046Z,100975.97
2022-11-25T15:32:46.958Z,100975.97
2022-11-25T15:35:48.994Z,100977.59
2022-11-25T15:38:51.857Z,100982.63
2022-11-25T15:42:20.204Z,100985.56
2022-11-25T15:45:22.591Z,100980.19
2022-11-25T15:48:35.360Z,100981.81
2022-11-25T15:51:47.994Z,100988.25
2022-11-25T15:54:52.706Z,100982.31
2022-11-25T15:57:58.534Z,100988.00
2022-11-25T16:01:01.626Z,100979.37
2022-11-25T16:04:19.822Z,100977.19
2022-11-25T16:07:24.362Z,100985.72
2022-11-25T16:10:45.230Z,100987.38
2022-11-25T16:13:49.241Z,100993.81
2022-11-25T16:16:51.960Z,100991.09
2022-11-25T16:19:54.137Z,100991.62
2022-11-25T16:22:56.557Z,100995.88
2022-11-25T16:26:13.156Z,100993.72
